Time;durP1;ratioP1;P1;durP2;ratioP2;P2;SDS_P1;SDS_P2;PMS_P1;PMS_P2;Temp;Humidity;BMP_temperature;BMP_pressure;BME280_temperature;BME280_humidity;BME280_pressure;Samples;Min_cycle;Max_cycle;Signal;HPM_P1;HPM_P2
2022/03/01 00:01:22;;;;;;;11.98;4.13;;;21.80;39.80;;;;;;4973917;28;20056;-77
2022/03/01 00:03:47;;;;;;;10.25;4.57;;;21.80;39.80;;;;;;4991563;28;20043;-77
2022/03/01 00:06:13;;;;;;;10.75;4.30;;;21.80;39.90;;;;;;4973783;28;20129;-77
2022/03/01 00:08:38;;;;;;;9.25;3.83;;;21.80;39.80;;;;;;4973752;28;20089;-77
2022/03/01 00:11:04;;;;;;;10.38;3.83;;;21.80;39.80;;;;;;4973949;28;20497;-77
2022/03/01 00:13:29;;;;;;;9.73;4.20;;;21.70;39.80;;;;;;4973765;28;20570;-77
2022/03/01 00:15:55;;;;;;;10.07;3.95;;;21.80;40.00;;;;;;4957458;28;20073;-77
2022/03/01 00:18:20;;;;;;;12.50;4.25;;;21.70;39.90;;;;;;4973744;28;20053;-76
2022/03/01 00:20:46;;;;;;;8.50;3.40;;;21.70;39.90;;;;;;4973442;28;20050;-77
2022/03/01 00:23:11;;;;;;;10.60;4.22;;;21.70;39.90;;;;;;4973667;28;20474;-77
2022/03/01 00:25:37;;;;;;;8.30;3.53;;;21.70;39.90;;;;;;4973515;28;20390;-77
2022/03/01 00:28:03;;;;;;;9.35;3.88;;;21.70;40.00;;;;;;4973467;28;20053;-76
2022/03/01 00:30:28;;;;;;;8.20;3.25;;;21.70;40.00;;;;;;4973814;28;20508;-77
2022/03/01 00:32:54;;;;;;;8.90;3.70;;;21.70;40.00;;;;;;4973698;28;20046;-77
2022/03/01 00:35:19;;;;;;;9.25;3.60;;;21.70;40.00;;;;;;4973015;28;20042;-77
2022/03/01 00:37:45;;;;;;;8.23;3.70;;;21.70;40.00;;;;;;4973852;28;20051;-77
2022/03/01 00:40:11;;;;;;;7.88;3.75;;;21.70;40.00;;;;;;4973252;28;20042;-77
2022/03/01 00:42:36;;;;;;;8.23;3.22;;;21.70;40.00;;;;;;4973272;28;20030;-76
2022/03/01 00:45:02;;;;;;;9.30;3.42;;;21.70;40.00;;;;;;4973508;28;20676;-77
2022/03/01 00:47:28;;;;;;;7.38;3.10;;;21.70;40.00;;;;;;4973428;28;20445;-77
2022/03/01 00:49:54;;;;;;;7.38;3.40;;;21.70;40.00;;;;;;4973307;28;20090;-77
2022/03/01 00:52:19;;;;;;;8.05;3.17;;;21.70;40.00;;;;;;4977690;28;20694;-77
2022/03/01 00:54:45;;;;;;;8.07;3.05;;;21.70;40.10;;;;;;4977294;28;20409;-77
2022/03/01 00:57:10;;;;;;;6.55;3.00;;;21.90;40.20;;;;;;4977158;28;20128;-77
2022/03/01 00:59:36;;;;;;;7.88;2.97;;;21.70;40.10;;;;;;4977291;28;20050;-77
2022/03/01 01:02:02;;;;;;;8.90;4.13;;;21.70;40.10;;;;;;4977220;28;20128;-77
2022/03/01 01:04:27;;;;;;;8.75;3.33;;;21.70;40.10;;;;;;4977050;28;20057;-77
2022/03/01 01:06:53;;;;;;;7.93;2.97;;;21.70;40.10;;;;;;4977224;28;20050;-77
2022/03/01 01:09:18;;;;;;;7.95;3.10;;;21.70;40.10;;;;;;4977178;28;20148;-77
2022/03/01 01:11:44;;;;;;;6.18;2.53;;;21.70;40.10;;;;;;4976660;28;20050;-77
2022/03/01 01:14:09;;;;;;;7.18;2.90;;;21.70;40.10;;;;;;4977144;28;20050;-77
2022/03/01 01:16:35;;;;;;;6.65;2.90;;;21.70;40.10;;;;;;4976964;28;20047;-77
2022/03/01 01:19:00;;;;;;;6.43;2.70;;;21.70;40.00;;;;;;4960504;28;20137;-77
2022/03/01 01:22:39;;;;;;;5.93;2.42;;;21.70;40.00;;;;;;4976941;28;20093;-77
2022/03/01 01:24:11;;;;;;;9.40;3.13;;;21.70;40.10;;;;;;4976410;28;20085;-77
2022/03/01 01:26:37;;;;;;;6.90;3.00;;;21.70;40.10;;;;;;4976973;28;20125;-77
2022/03/01 01:29:02;;;;;;;5.18;2.22;;;21.70;40.00;;;;;;4960748;28;20054;-77
2022/03/01 01:31:28;;;;;;;6.10;2.80;;;21.70;40.00;;;;;;4976494;28;20053;-77
2022/03/01 01:33:53;;;;;;;7.05;3.10;;;21.70;40.10;;;;;;4976901;28;20050;-77
2022/03/01 01:36:19;;;;;;;6.03;2.58;;;21.70;40.10;;;;;;4976604;28;20506;-77
2022/03/01 01:38:45;;;;;;;6.68;2.65;;;21.70;40.00;;;;;;4976098;28;20184;-77
2022/03/01 01:41:11;;;;;;;6.50;2.70;;;21.70;40.10;;;;;;4976617;28;20050;-77
2022/03/01 01:43:36;;;;;;;5.53;2.70;;;21.70;40.10;;;;;;4976512;28;20050;-77
2022/03/01 01:46:02;;;;;;;4.82;2.40;;;21.70;40.00;;;;;;4975996;28;20177;-77
2022/03/01 01:48:27;;;;;;;5.05;2.63;;;21.70;40.10;;;;;;4976379;28;20414;-77
2022/03/01 01:50:53;;;;;;;5.38;2.42;;;22.70;40.60;;;;;;4993919;28;20073;-76
2022/03/01 01:53:19;;;;;;;6.45;2.50;;;21.70;40.10;;;;;;4993442;28;20089;-77
2022/03/01 01:55:44;;;;;;;5.85;2.63;;;21.70;40.10;;;;;;4960303;28;20497;-77
2022/03/01 01:58:10;;;;;;;5.05;2.42;;;21.70;40.00;;;;;;4976092;28;20050;-77
2022/03/01 02:00:35;;;;;;;4.80;2.28;;;21.70;40.10;;;;;;4993316;28;20058;-77
2022/03/01 02:03:01;;;;;;;5.13;2.50;;;21.70;40.10;;;;;;4975523;28;20061;-77
2022/03/01 02:05:27;;;;;;;5.95;2.80;;;21.70;40.10;;;;;;4975933;28;20038;-77
2022/03/01 02:07:53;;;;;;;6.50;2.85;;;21.70;40.10;;;;;;4975470;28;20054;-77
2022/03/01 02:10:18;;;;;;;5.85;2.72;;;21.70;40.10;;;;;;4976174;28;20173;-77
2022/03/01 02:12:45;;;;;;;6.40;2.78;;;21.70;40.10;;;;;;4975803;28;20107;-77
2022/03/01 02:15:10;;;;;;;5.30;2.42;;;21.70;40.10;;;;;;4975662;28;20042;-77
2022/03/01 02:17:38;;;;;;;5.45;2.70;;;21.60;40.00;;;;;;4975688;28;20073;-77
2022/03/01 02:20:14;;;;;;;6.57;2.75;;;21.60;40.10;;;;;;4975717;28;20069;-77
2022/03/01 02:22:40;;;;;;;5.10;2.50;;;21.60;40.10;;;;;;4975796;28;20043;-76
2022/03/01 02:25:06;;;;;;;5.95;3.05;;;21.60;40.10;;;;;;4975617;28;20089;-77
2022/03/01 02:27:32;;;;;;;6.20;2.55;;;21.60;40.10;;;;;;4975216;28;20752;-76
2022/03/01 02:29:57;;;;;;;4.82;2.28;;;21.60;40.10;;;;;;4975453;28;20047;-77
2022/03/01 02:32:23;;;;;;;4.60;2.28;;;21.60;40.10;;;;;;4975425;28;20038;-77
2022/03/01 02:34:48;;;;;;;5.22;2.13;;;21.60;40.10;;;;;;4974955;28;20039;-77
2022/03/01 02:37:14;;;;;;;5.03;2.20;;;21.60;40.10;;;;;;4975901;28;20682;-77
2022/03/01 02:39:40;;;;;;;4.70;2.33;;;21.60;40.10;;;;;;4975245;28;20061;-77
2022/03/01 02:42:06;;;;;;;4.70;2.20;;;21.60;40.10;;;;;;4974957;28;20504;-77
2022/03/01 02:44:31;;;;;;;5.28;2.17;;;21.60;40.10;;;;;;4975270;28;20109;-77
2022/03/01 02:46:57;;;;;;;4.97;2.42;;;21.60;40.10;;;;;;4975125;28;20038;-76
2022/03/01 02:49:22;;;;;;;5.50;2.35;;;21.60;40.20;;;;;;4974865;28;20070;-77
2022/03/01 02:51:48;;;;;;;5.65;2.60;;;21.60;40.10;;;;;;4975319;28;20125;-77
2022/03/01 02:54:13;;;;;;;5.80;2.35;;;21.60;40.10;;;;;;4974952;28;20694;-77
2022/03/01 02:56:39;;;;;;;5.90;2.10;;;21.60;40.10;;;;;;4974755;28;20444;-77
2022/03/01 02:59:05;;;;;;;4.38;2.10;;;21.60;40.10;;;;;;4975174;28;20053;-77
2022/03/01 03:01:31;;;;;;;4.60;1.90;;;21.60;40.10;;;;;;4974994;28;20125;-77
2022/03/01 03:03:56;;;;;;;4.68;2.10;;;21.60;40.20;;;;;;4974541;28;20042;-77
2022/03/01 03:06:22;;;;;;;4.38;2.20;;;21.60;40.10;;;;;;4974973;28;20042;-77
2022/03/01 03:08:48;;;;;;;5.05;1.95;;;21.60;40.10;;;;;;4974877;28;20133;-77
2022/03/01 03:11:14;;;;;;;3.70;1.67;;;21.60;40.10;;;;;;4974290;28;20050;-77
2022/03/01 03:13:39;;;;;;;6.28;2.47;;;21.60;40.10;;;;;;4973940;28;20057;-77
2022/03/01 03:16:07;;;;;;;3.67;1.77;;;21.60;40.20;;;;;;4974493;28;20042;-77
2022/03/01 03:18:33;;;;;;;3.75;1.90;;;21.60;40.10;;;;;;4974077;28;20054;-77
2022/03/01 03:20:58;;;;;;;3.72;1.88;;;21.60;40.10;;;;;;4974856;28;20053;-77
2022/03/01 03:23:24;;;;;;;3.90;2.03;;;21.60;40.10;;;;;;4974869;28;20528;-77
2022/03/01 03:25:50;;;;;;;4.80;2.13;;;21.60;40.10;;;;;;4974595;28;20429;-78
2022/03/01 03:28:16;;;;;;;3.40;1.60;;;21.60;40.10;;;;;;4974543;28;20633;-77
2022/03/01 03:30:41;;;;;;;3.63;1.73;;;21.60;40.20;;;;;;4974069;28;20088;-77
2022/03/01 03:33:07;;;;;;;4.88;1.92;;;21.60;40.10;;;;;;4974508;28;20046;-77
2022/03/01 03:35:32;;;;;;;5.63;2.17;;;21.60;40.10;;;;;;4974348;28;20038;-77
2022/03/01 03:37:58;;;;;;;2.42;1.40;;;21.60;40.10;;;;;;4973956;28;20046;-77
2022/03/01 03:40:23;;;;;;;4.22;1.90;;;21.60;40.10;;;;;;4974274;28;20112;-77
2022/03/01 03:42:49;;;;;;;4.28;2.13;;;21.60;40.10;;;;;;4974140;28;20096;-77
2022/03/01 03:45:14;;;;;;;3.92;2.10;;;21.60;40.10;;;;;;4974115;28;20054;-77
2022/03/01 03:47:41;;;;;;;4.32;1.90;;;21.60;40.10;;;;;;4974254;28;20121;-77
2022/03/01 03:50:09;;;;;;;4.35;1.85;;;21.60;40.10;;;;;;4973922;28;20132;-77
2022/03/01 03:52:38;;;;;;;4.15;2.10;;;21.60;40.10;;;;;;4974130;28;20106;-77
2022/03/01 03:55:05;;;;;;;3.92;1.98;;;21.60;40.10;;;;;;4974397;28;20125;-77
2022/03/01 03:57:32;;;;;;;4.55;2.08;;;21.60;40.10;;;;;;4973810;28;20077;-77
2022/03/01 03:59:58;;;;;;;3.88;1.90;;;21.60;40.10;;;;;;4973545;28;20101;-77
2022/03/01 04:02:23;;;;;;;3.55;2.05;;;21.60;40.10;;;;;;4973981;28;20454;-77
2022/03/01 04:04:49;;;;;;;4.35;2.25;;;21.60;40.10;;;;;;4973898;28;20069;-77
2022/03/01 04:07:14;;;;;;;4.88;2.22;;;21.60;40.10;;;;;;4973655;28;20092;-77
2022/03/01 04:09:40;;;;;;;4.35;1.92;;;21.60;40.10;;;;;;4974117;28;20046;-77
2022/03/01 04:12:06;;;;;;;3.17;1.92;;;21.60;40.10;;;;;;4973390;28;20526;-77
2022/03/01 04:14:31;;;;;;;4.35;1.80;;;21.60;40.10;;;;;;4973293;28;20054;-77
2022/03/01 04:16:57;;;;;;;4.00;2.10;;;21.60;40.10;;;;;;4973751;28;20065;-77
2022/03/01 04:19:23;;;;;;;3.90;1.85;;;21.60;40.10;;;;;;4973619;28;20089;-77
2022/03/01 04:21:48;;;;;;;3.70;1.80;;;21.60;40.10;;;;;;4973276;28;20089;-77
2022/03/01 04:24:14;;;;;;;4.30;1.85;;;21.90;40.30;;;;;;4973419;28;20049;-77
2022/03/01 04:26:40;;;;;;;4.07;2.22;;;21.60;40.10;;;;;;4973582;28;20149;-77
2022/03/01 04:29:05;;;;;;;4.40;2.45;;;21.60;40.10;;;;;;4973441;28;20058;-77
2022/03/01 04:31:31;;;;;;;3.70;1.77;;;21.60;40.10;;;;;;4973659;28;20129;-77
2022/03/01 04:33:57;;;;;;;4.43;2.50;;;21.60;40.10;;;;;;4973258;28;20478;-77
2022/03/01 04:36:22;;;;;;;4.10;1.95;;;21.60;40.10;;;;;;4973655;28;20555;-77
2022/03/01 04:38:48;;;;;;;3.75;1.98;;;21.50;40.10;;;;;;4973529;28;20505;-77
2022/03/01 04:41:13;;;;;;;3.42;1.80;;;21.60;40.10;;;;;;4972961;28;20473;-77
2022/03/01 04:43:39;;;;;;;4.13;2.00;;;21.50;40.10;;;;;;4973347;28;20326;-77
2022/03/01 04:46:05;;;;;;;3.53;1.83;;;21.60;40.90;;;;;;4973254;28;20057;-77
2022/03/01 04:48:30;;;;;;;3.47;1.67;;;21.60;40.10;;;;;;4973005;28;20042;-77
2022/03/01 04:50:56;;;;;;;3.45;1.70;;;21.60;40.10;;;;;;4973775;28;20046;-77
2022/03/01 04:53:22;;;;;;;3.30;1.90;;;21.60;40.20;;;;;;4973196;28;20685;-77
2022/03/01 04:55:47;;;;;;;2.83;1.60;;;21.50;40.20;;;;;;4972982;28;20070;-77
2022/03/01 04:58:13;;;;;;;3.47;1.60;;;21.80;40.30;;;;;;4973383;28;20496;-77
2022/03/01 05:00:38;;;;;;;3.42;1.88;;;21.50;40.10;;;;;;4973142;28;20108;-77
2022/03/01 05:03:04;;;;;;;3.92;1.90;;;21.50;40.20;;;;;;4973019;28;20077;-77
2022/03/01 05:05:29;;;;;;;3.17;1.50;;;21.60;40.10;;;;;;4973306;28;20042;-77
2022/03/01 05:07:55;;;;;;;4.30;1.88;;;21.50;40.10;;;;;;4972999;28;20496;-77
2022/03/01 05:10:21;;;;;;;3.22;1.60;;;22.20;40.50;;;;;;4972779;28;20454;-77
2022/03/01 05:12:52;;;;;;;2.83;1.63;;;21.50;40.20;;;;;;4990470;28;20065;-77
2022/03/01 05:15:18;;;;;;;3.47;1.67;;;21.50;40.10;;;;;;4973191;28;20482;-77
2022/03/01 05:17:43;;;;;;;3.10;1.63;;;21.50;40.10;;;;;;4972961;28;20073;-77
2022/03/01 05:20:09;;;;;;;2.83;1.70;;;21.60;40.10;;;;;;4972775;28;20104;-77
2022/03/01 05:22:35;;;;;;;3.20;1.60;;;21.60;40.20;;;;;;4973441;28;20042;-77
2022/03/01 05:25:01;;;;;;;3.13;1.40;;;21.60;40.20;;;;;;4972788;28;20703;-77
2022/03/01 05:27:28;;;;;;;3.05;1.67;;;21.60;40.20;;;;;;4990489;28;20038;-77
2022/03/01 05:29:54;;;;;;;2.65;1.40;;;21.60;40.20;;;;;;4973035;28;20050;-77
2022/03/01 05:32:19;;;;;;;2.58;1.50;;;21.60;40.20;;;;;;4972564;28;20056;-77
2022/03/01 05:34:45;;;;;;;2.85;1.40;;;21.60;40.20;;;;;;4973056;28;20042;-77
2022/03/01 05:37:10;;;;;;;3.13;1.63;;;21.60;40.20;;;;;;4972940;28;20043;-77
2022/03/01 05:39:36;;;;;;;3.75;1.80;;;21.60;40.20;;;;;;4976477;28;20046;-77
2022/03/01 05:42:02;;;;;;;3.33;1.70;;;21.60;40.20;;;;;;4976733;28;20100;-77
2022/03/01 05:44:27;;;;;;;3.33;1.67;;;21.60;40.20;;;;;;4976400;28;20045;-77
2022/03/01 05:46:53;;;;;;;3.55;1.88;;;21.60;40.30;;;;;;4976563;28;20097;-77
2022/03/01 05:49:18;;;;;;;3.80;1.48;;;21.60;40.30;;;;;;4976553;28;20051;-77
2022/03/01 05:51:44;;;;;;;2.95;1.60;;;21.60;40.30;;;;;;4976274;28;20042;-77
2022/03/01 05:54:09;;;;;;;2.97;1.50;;;21.60;40.20;;;;;;4976456;28;20484;-77
2022/03/01 05:56:35;;;;;;;3.55;1.77;;;21.60;40.20;;;;;;4976168;28;20062;-77
2022/03/01 05:59:00;;;;;;;3.45;1.83;;;21.70;40.30;;;;;;4975819;28;20046;-78
2022/03/01 06:01:26;;;;;;;2.25;1.25;;;21.70;40.30;;;;;;4976501;28;20042;-77
2022/03/01 06:03:52;;;;;;;3.90;1.70;;;21.70;40.30;;;;;;4976334;28;20069;-78
2022/03/01 06:06:18;;;;;;;3.00;1.80;;;21.70;40.30;;;;;;4975821;28;20046;-78
2022/03/01 06:08:44;;;;;;;3.35;1.60;;;21.70;40.30;;;;;;4976273;28;20089;-77
2022/03/01 06:11:09;;;;;;;3.30;1.65;;;21.70;40.30;;;;;;4975772;28;20066;-78
2022/03/01 06:13:37;;;;;;;2.42;1.42;;;21.70;40.20;;;;;;4975581;28;20050;-78
2022/03/01 06:16:03;;;;;;;2.63;1.50;;;21.70;40.30;;;;;;4976207;28;20305;-78
2022/03/01 06:18:29;;;;;;;3.70;1.92;;;21.70;40.20;;;;;;4975772;28;20046;-78
2022/03/01 06:20:54;;;;;;;3.25;1.83;;;21.70;40.20;;;;;;4975659;28;20053;-78
2022/03/01 06:23:20;;;;;;;2.70;1.33;;;21.80;40.30;;;;;;4943521;28;20489;-78
2022/03/01 06:25:46;;;;;;;2.25;1.30;;;21.70;40.30;;;;;;4943672;28;20050;-78
2022/03/01 06:28:11;;;;;;;3.17;1.70;;;21.80;40.30;;;;;;4959555;28;20050;-78
2022/03/01 06:30:37;;;;;;;2.75;1.42;;;21.80;40.30;;;;;;4958574;28;20753;-78
2022/03/01 06:33:03;;;;;;;3.55;1.80;;;21.80;40.30;;;;;;4975392;28;20397;-78
2022/03/01 06:35:29;;;;;;;2.90;1.50;;;21.80;40.30;;;;;;4975260;28;20050;-78
2022/03/01 06:37:55;;;;;;;3.08;1.60;;;21.80;40.30;;;;;;4974396;28;20114;-78
2022/03/01 06:40:20;;;;;;;3.08;1.60;;;21.80;40.30;;;;;;4974385;28;20046;-77
2022/03/01 06:42:48;;;;;;;3.97;1.70;;;21.80;40.30;;;;;;4974735;28;20054;-78
2022/03/01 06:45:13;;;;;;;2.28;1.30;;;21.90;40.40;;;;;;4975586;28;20057;-78
2022/03/01 06:47:39;;;;;;;2.85;1.42;;;21.90;40.40;;;;;;4958308;28;20045;-78
2022/03/01 06:50:05;;;;;;;3.33;1.73;;;21.90;40.40;;;;;;4985258;28;20202;-78
2022/03/01 06:52:32;;;;;;;2.25;1.23;;;21.90;40.40;;;;;;4975219;28;20046;-78
2022/03/01 06:54:58;;;;;;;3.85;1.70;;;21.90;40.30;;;;;;4974622;28;20402;-78
2022/03/01 06:57:23;;;;;;;2.72;1.60;;;21.90;40.40;;;;;;4974932;28;20053;-78
2022/03/01 06:59:53;;;;;;;2.65;1.50;;;22.00;40.40;;;;;;4974775;28;20053;-78
2022/03/01 07:02:18;;;;;;;3.47;1.60;;;22.00;40.40;;;;;;4974965;28;20054;-78
2022/03/01 07:04:44;;;;;;;2.70;1.50;;;22.00;40.40;;;;;;4974822;28;20054;-77
2022/03/01 07:07:09;;;;;;;2.97;1.55;;;22.00;40.40;;;;;;4975015;28;20057;-78
2022/03/01 07:09:35;;;;;;;2.80;1.50;;;22.00;40.30;;;;;;4974200;28;20557;-78
2022/03/01 07:12:01;;;;;;;2.53;1.50;;;22.10;40.40;;;;;;4974842;28;20058;-78
2022/03/01 07:14:26;;;;;;;2.63;1.40;;;22.10;40.40;;;;;;4974717;28;20500;-78
2022/03/01 07:16:52;;;;;;;2.78;1.63;;;22.10;40.30;;;;;;4975072;28;20046;-81
2022/03/01 07:19:18;;;;;;;2.80;1.52;;;22.10;40.30;;;;;;4975088;28;20714;-77
2022/03/01 07:21:43;;;;;;;2.80;1.40;;;22.10;40.30;;;;;;4974908;28;20483;-79
2022/03/01 07:24:09;;;;;;;3.17;1.63;;;22.20;40.30;;;;;;4974299;28;20405;-77
2022/03/01 07:26:34;;;;;;;3.08;1.50;;;22.10;40.20;;;;;;4974517;28;20053;-77
2022/03/01 07:29:00;;;;;;;2.60;1.40;;;22.10;40.20;;;;;;4974856;28;20061;-78
2022/03/01 07:31:25;;;;;;;3.30;1.70;;;22.10;40.20;;;;;;4974620;28;20081;-78
2022/03/01 07:33:51;;;;;;;2.42;1.40;;;22.10;40.20;;;;;;4972615;28;20469;-78
2022/03/01 07:36:16;;;;;;;2.55;1.35;;;22.10;40.20;;;;;;4974330;28;20049;-78
2022/03/01 07:38:42;;;;;;;3.63;1.60;;;22.10;40.20;;;;;;4972029;28;20054;-78
2022/03/01 07:41:08;;;;;;;2.58;1.23;;;22.20;40.20;;;;;;4974160;28;20042;-78
2022/03/01 07:43:33;;;;;;;3.30;1.60;;;22.10;40.20;;;;;;4959237;28;20046;-78
2022/03/01 07:45:59;;;;;;;2.47;1.30;;;22.20;40.90;;;;;;4967145;28;20058;-78
2022/03/01 07:48:24;;;;;;;4.70;1.60;;;22.10;40.10;;;;;;4983040;28;20042;-78
2022/03/01 07:50:50;;;;;;;2.45;1.42;;;22.10;40.10;;;;;;4973466;28;20121;-78
2022/03/01 07:53:16;;;;;;;3.25;1.70;;;22.20;40.20;;;;;;4974255;28;20489;-78
2022/03/01 07:55:42;;;;;;;2.78;1.40;;;22.20;40.10;;;;;;4973124;28;20065;-77
2022/03/01 07:58:08;;;;;;;2.45;1.30;;;22.20;40.10;;;;;;4973903;28;20043;-78
2022/03/01 08:00:34;;;;;;;2.97;1.58;;;22.20;40.20;;;;;;4973482;28;20058;-78
2022/03/01 08:02:59;;;;;;;3.05;1.63;;;22.40;40.20;;;;;;4973841;28;20089;-78
2022/03/01 08:05:25;;;;;;;2.75;1.60;;;22.20;40.20;;;;;;4974022;28;20541;-78
2022/03/01 08:07:51;;;;;;;2.85;1.67;;;22.20;40.10;;;;;;4974011;28;20445;-78
2022/03/01 08:10:18;;;;;;;3.05;1.60;;;22.20;40.10;;;;;;4973475;28;20046;-78
2022/03/01 08:12:43;;;;;;;3.58;1.73;;;22.20;40.10;;;;;;4986087;28;20499;-78
2022/03/01 08:15:09;;;;;;;2.90;1.58;;;22.20;40.10;;;;;;4970950;28;20051;-78
2022/03/01 08:17:34;;;;;;;3.40;1.88;;;22.20;40.10;;;;;;4970677;28;20787;-78
2022/03/01 08:20:00;;;;;;;3.17;1.70;;;22.20;40.10;;;;;;4969836;28;20418;-78
2022/03/01 08:22:26;;;;;;;2.67;1.40;;;22.20;40.10;;;;;;4970541;28;20054;-78
2022/03/01 08:24:51;;;;;;;3.63;1.80;;;22.20;40.10;;;;;;4970571;28;20065;-78
2022/03/01 08:27:17;;;;;;;10.98;5.57;;;22.20;40.10;;;;;;4967156;28;20162;-80
2022/03/01 08:29:43;;;;;;;10.88;6.20;;;22.10;39.00;;;;;;4965495;28;20062;-77
2022/03/01 08:32:08;;;;;;;11.55;6.35;;;22.10;38.10;;;;;;4968653;28;20359;-77
2022/03/01 08:34:34;;;;;;;8.85;5.25;;;22.60;38.20;;;;;;4969326;28;20055;-77
2022/03/01 08:36:59;;;;;;;8.35;5.43;;;21.80;38.70;;;;;;4969279;28;20512;-77
2022/03/01 08:39:25;;;;;;;6.60;4.47;;;21.70;37.90;;;;;;4968742;28;20054;-78
2022/03/01 08:41:53;;;;;;;8.23;5.20;;;21.70;38.10;;;;;;4969099;28;20035;-82
2022/03/01 08:44:19;;;;;;;8.38;5.13;;;21.60;38.10;;;;;;4968195;28;20405;-80
2022/03/01 08:46:44;;;;;;;8.02;5.40;;;21.50;38.30;;;;;;4968651;28;20600;-80
2022/03/01 08:49:10;;;;;;;8.40;5.68;;;21.50;38.20;;;;;;4969337;28;20042;-80
2022/03/01 08:51:36;;;;;;;8.07;5.25;;;21.40;38.30;;;;;;4965207;28;20039;-80
2022/03/01 08:54:02;;;;;;;8.80;5.88;;;21.40;38.20;;;;;;4969919;28;20051;-81
2022/03/01 08:56:27;;;;;;;8.23;5.25;;;21.60;38.40;;;;;;4969810;28;20047;-79
2022/03/01 08:58:55;;;;;;;8.60;5.60;;;21.30;38.20;;;;;;4969602;28;20057;-79
2022/03/01 09:01:20;;;;;;;8.70;5.65;;;21.30;38.40;;;;;;4969233;28;20051;-76
2022/03/01 09:03:47;;;;;;;7.93;5.28;;;21.30;38.10;;;;;;4970011;28;20525;-76
2022/03/01 09:06:12;;;;;;;9.43;5.40;;;21.20;38.30;;;;;;4970995;28;20061;-76
2022/03/01 09:08:40;;;;;;;7.72;5.63;;;21.20;38.40;;;;;;4969923;28;20059;-75
2022/03/01 09:11:06;;;;;;;8.55;5.38;;;21.20;38.20;;;;;;4989542;28;20066;-76
2022/03/01 09:13:32;;;;;;;7.80;5.25;;;21.20;38.20;;;;;;4992147;28;20497;-76
2022/03/01 09:15:57;;;;;;;7.60;5.13;;;21.20;38.20;;;;;;4976563;28;20089;-76
2022/03/01 09:18:23;;;;;;;9.35;5.82;;;21.20;38.10;;;;;;4976905;28;20525;-76
2022/03/01 09:20:49;;;;;;;8.63;5.18;;;21.20;38.00;;;;;;4976749;28;20521;-76
2022/03/01 09:23:14;;;;;;;9.55;5.72;;;21.50;38.20;;;;;;4993559;28;20077;-76
2022/03/01 09:25:40;;;;;;;11.23;5.53;;;21.20;37.90;;;;;;4994435;28;20061;-76
2022/03/01 09:28:05;;;;;;;9.18;5.75;;;21.20;38.00;;;;;;4994252;28;20042;-76
2022/03/01 09:30:31;;;;;;;7.43;5.07;;;21.20;37.90;;;;;;4976331;28;20129;-76
2022/03/01 09:32:57;;;;;;;7.45;4.78;;;21.10;37.80;;;;;;4993159;28;20140;-75
2022/03/01 09:35:22;;;;;;;9.15;5.80;;;21.10;37.80;;;;;;4976734;28;20101;-75
2022/03/01 09:37:48;;;;;;;9.20;5.72;;;21.10;37.50;;;;;;4976106;28;20046;-75
2022/03/01 09:40:14;;;;;;;7.57;5.07;;;21.40;37.90;;;;;;4993994;28;20082;-75
2022/03/01 09:42:40;;;;;;;9.82;5.88;;;21.10;37.60;;;;;;4990415;28;20065;-76
2022/03/01 09:45:06;;;;;;;9.00;5.28;;;21.10;38.00;;;;;;4988164;28;20505;-77
2022/03/01 09:47:31;;;;;;;10.18;6.57;;;21.10;38.10;;;;;;4964156;28;20129;-74
2022/03/01 09:49:57;;;;;;;11.88;5.90;;;21.10;37.30;;;;;;4989351;28;20401;-74
2022/03/01 09:52:22;;;;;;;10.65;5.28;;;21.00;37.80;;;;;;4974489;28;20134;-74
2022/03/01 09:54:49;;;;;;;8.73;5.47;;;21.00;37.70;;;;;;4992733;28;20038;-75
2022/03/01 09:57:14;;;;;;;8.95;5.75;;;21.00;37.90;;;;;;4992343;28;20049;-75
2022/03/01 10:39:42;;;;;;;8.75;5.70;;;20.90;37.30;;;;;;4873431;29;20182;-76
2022/03/01 10:42:08;;;;;;;10.32;6.00;;;20.80;37.50;;;;;;4861312;29;20041;-77
2022/03/01 10:44:33;;;;;;;10.43;6.00;;;21.00;37.50;;;;;;4870109;29;20105;-77
2022/03/01 10:47:02;;;;;;;8.38;5.65;;;20.80;37.10;;;;;;4867709;29;20045;-76
2022/03/01 10:49:32;;;;;;;8.32;5.40;;;20.80;37.20;;;;;;4874587;29;20058;-77
2022/03/01 10:52:07;;;;;;;10.93;5.78;;;20.80;37.20;;;;;;4847960;29;20049;-77
2022/03/01 10:54:36;;;;;;;9.05;5.50;;;20.80;37.30;;;;;;4874370;29;20128;-77
2022/03/01 10:57:03;;;;;;;7.93;5.60;;;20.80;37.80;;;;;;4874312;29;20053;-77
2022/03/01 10:59:30;;;;;;;11.35;5.97;;;20.80;38.00;;;;;;4842102;29;20156;-77
2022/03/01 11:01:56;;;;;;;54.72;20.23;;;20.70;38.10;;;;;;4859915;29;20049;-77
2022/03/01 11:04:22;;;;;;;34.97;14.80;;;20.70;38.20;;;;;;4859948;29;20056;-76
2022/03/01 11:06:48;;;;;;;117.07;35.50;;;20.70;38.30;;;;;;4859252;29;20037;-76
2022/03/01 11:09:13;;;;;;;194.25;55.90;;;20.70;38.50;;;;;;4868767;29;20492;-77
2022/03/01 11:11:40;;;;;;;236.93;70.13;;;20.80;38.40;;;;;;4868672;29;20053;-77
2022/03/01 11:14:11;;;;;;;213.23;64.65;;;20.80;38.40;;;;;;4856749;29;20051;-77
2022/03/01 11:16:59;;;;;;;203.10;64.43;;;20.80;38.20;;;;;;4878535;29;20057;-76
2022/03/01 11:19:49;;;;;;;188.73;58.65;;;20.80;38.10;;;;;;4853900;29;20079;-77
2022/03/01 11:22:41;;;;;;;189.48;57.53;;;20.80;38.10;;;;;;4874464;29;20056;-76
2022/03/01 11:25:14;;;;;;;164.23;50.90;;;20.80;37.90;;;;;;4854574;29;20068;-76
2022/03/01 11:27:43;;;;;;;145.88;46.72;;;20.80;37.90;;;;;;4873842;29;20127;-81
2022/03/01 11:30:09;;;;;;;148.68;47.40;;;20.80;37.80;;;;;;4879728;29;20139;-75
2022/03/01 11:32:43;;;;;;;112.28;39.17;;;20.70;37.50;;;;;;4893895;29;20181;-76
2022/03/01 11:35:23;;;;;;;111.20;37.63;;;20.70;37.10;;;;;;4878180;29;20052;-77
2022/03/01 11:38:10;;;;;;;106.95;36.80;;;20.70;37.00;;;;;;4878318;29;20502;-77
2022/03/01 11:40:40;;;;;;;95.47;34.20;;;20.70;37.10;;;;;;4878746;29;20326;-77
2022/03/01 11:43:13;;;;;;;78.57;28.85;;;20.70;37.10;;;;;;4879753;29;20068;-77
2022/03/01 11:45:39;;;;;;;84.82;28.55;;;20.70;36.70;;;;;;4879499;29;20500;-77
2022/03/01 11:48:13;;;;;;;72.10;27.88;;;20.70;36.80;;;;;;4876609;29;20147;-77
2022/03/01 11:50:46;;;;;;;75.28;28.75;;;20.70;36.70;;;;;;4896278;29;20056;-77
2022/03/01 11:53:14;;;;;;;63.88;26.20;;;20.70;36.90;;;;;;4879408;29;20063;-77
2022/03/01 11:55:49;;;;;;;72.10;26.38;;;20.70;36.80;;;;;;4863142;29;20056;-77
2022/03/01 11:58:17;;;;;;;64.53;24.52;;;20.70;36.60;;;;;;4895971;29;20492;-77
2022/03/01 12:00:42;;;;;;;51.90;21.65;;;20.70;36.70;;;;;;4863937;29;20053;-77
2022/03/01 12:03:15;;;;;;;52.92;21.35;;;20.70;36.30;;;;;;4859976;29;20518;-77
2022/03/01 12:05:45;;;;;;;48.35;20.63;;;20.70;36.30;;;;;;4860810;29;20065;-77
2022/03/01 12:08:12;;;;;;;48.13;21.40;;;20.70;36.30;;;;;;4860767;29;20041;-75
2022/03/01 12:10:38;;;;;;;48.20;19.85;;;21.70;36.70;;;;;;4844885;29;20057;-81
2022/03/01 12:13:07;;;;;;;44.83;18.98;;;21.70;36.70;;;;;;4860397;29;20409;-76
2022/03/01 12:15:41;;;;;;;38.83;16.63;;;20.70;36.50;;;;;;4876884;29;20560;-76
2022/03/01 12:18:14;;;;;;;38.08;14.68;;;20.70;36.40;;;;;;4870606;29;20128;-75
2022/03/01 12:20:47;;;;;;;36.80;15.30;;;20.80;37.20;;;;;;4865550;29;20052;-75
2022/03/01 12:23:24;;;;;;;34.15;13.15;;;20.80;37.10;;;;;;4857985;29;20045;-76
2022/03/01 12:25:50;;;;;;;35.92;14.45;;;20.90;37.10;;;;;;4875972;29;20064;-76
2022/03/01 12:28:16;;;;;;;30.90;14.35;;;20.90;36.90;;;;;;4859732;29;20053;-76
2022/03/01 12:30:44;;;;;;;33.72;13.65;;;20.90;36.50;;;;;;4844514;29;20045;-77
2022/03/01 12:33:12;;;;;;;27.08;12.52;;;20.90;36.50;;;;;;4876486;29;20052;-76
2022/03/01 12:35:38;;;;;;;27.70;12.55;;;21.00;36.60;;;;;;4859544;29;20133;-76
2022/03/01 12:38:12;;;;;;;23.70;11.63;;;21.00;36.50;;;;;;4858931;29;20135;-76
2022/03/01 12:40:39;;;;;;;25.63;11.75;;;21.00;36.40;;;;;;4860078;29;20140;-76
2022/03/01 12:43:10;;;;;;;29.65;11.77;;;21.00;36.30;;;;;;4876727;29;20568;-76
2022/03/01 12:45:46;;;;;;;27.13;10.95;;;21.00;36.40;;;;;;4859434;29;20101;-76
2022/03/01 12:48:13;;;;;;;24.05;10.90;;;21.00;36.20;;;;;;4883903;29;20484;-74
2022/03/01 12:50:52;;;;;;;21.38;9.88;;;21.00;36.20;;;;;;4869316;29;20071;-76
2022/03/01 12:53:18;;;;;;;17.05;9.18;;;21.00;36.00;;;;;;4893346;29;20510;-75
2022/03/01 12:55:48;;;;;;;21.23;10.00;;;21.00;35.80;;;;;;4876404;29;20052;-77
2022/03/01 12:58:18;;;;;;;20.55;9.70;;;21.00;35.80;;;;;;4879007;29;20061;-77
2022/03/01 13:00:46;;;;;;;19.85;9.98;;;21.00;35.70;;;;;;4879600;29;20052;-83
2022/03/01 13:03:12;;;;;;;17.63;9.40;;;20.90;36.10;;;;;;4879083;29;20045;-87
2022/03/01 13:05:37;;;;;;;17.77;9.38;;;20.90;35.90;;;;;;4877611;29;20504;-78
2022/03/01 13:08:03;;;;;;;19.42;9.65;;;20.90;35.60;;;;;;4879055;29;20139;-77
2022/03/01 13:10:30;;;;;;;21.27;9.30;;;20.90;36.00;;;;;;4861611;29;20095;-77
2022/03/01 13:12:57;;;;;;;16.70;9.18;;;20.80;36.30;;;;;;4879402;29;20060;-77
2022/03/01 13:15:23;;;;;;;15.32;8.35;;;20.80;36.20;;;;;;4888085;29;20112;-77
2022/03/01 13:17:56;;;;;;;17.30;8.65;;;20.80;36.10;;;;;;4861664;29;20045;-77
2022/03/01 13:20:22;;;;;;;14.52;8.32;;;20.80;35.90;;;;;;4872064;29;20527;-77